Time;durP1;ratioP1;P1;durP2;ratioP2;P2;SDS_P1;SDS_P2;PMS_P1;PMS_P2;Temp;Humidity;BMP_temperature;BMP_pressure;BME280_temperature;BME280_humidity;BME280_pressure;Samples;Min_cycle;Max_cycle;Signal;HPM_P1;HPM_P2
2021/12/23 00:02:12;;;;;;;23.10;17.03;;;0.40;99.90;;;;;;630332;226;26921;-79
2021/12/23 00:04:40;;;;;;;25.73;17.67;;;0.00;99.90;;;;;;630569;226;26608;-79
2021/12/23 00:07:08;;;;;;;24.40;16.87;;;0.00;99.90;;;;;;630494;226;26555;-79
2021/12/23 00:10:05;;;;;;;27.30;16.90;;;0.10;99.90;;;;;;624726;226;26875;-80
2021/12/23 00:12:23;;;;;;;28.00;16.83;;;0.00;99.90;;;;;;629282;226;26612;-79
2021/12/23 00:14:51;;;;;;;28.10;17.20;;;0.10;99.90;;;;;;632055;226;26820;-79
2021/12/23 00:17:38;;;;;;;27.30;18.20;;;0.10;99.90;;;;;;623714;230;26595;-79
2021/12/23 00:23:21;;;;;;;24.80;17.07;;;0.20;99.90;;;;;;634270;225;26634;-79
2021/12/23 00:24:50;;;;;;;23.33;16.00;;;-0.10;99.90;;;;;;624818;227;26586;-79
2021/12/23 00:27:18;;;;;;;24.93;16.83;;;-0.10;99.90;;;;;;629778;226;26619;-81
2021/12/23 00:29:46;;;;;;;27.07;17.93;;;0.00;99.90;;;;;;623776;230;26622;-79
2021/12/23 00:32:13;;;;;;;26.50;17.73;;;0.00;99.90;;;;;;635766;224;26614;-80
2021/12/23 00:34:41;;;;;;;26.53;17.43;;;0.00;99.90;;;;;;632047;225;26561;-80
2021/12/23 00:37:10;;;;;;;28.37;17.87;;;0.00;99.90;;;;;;635900;225;26863;-80
2021/12/23 00:39:37;;;;;;;25.83;17.27;;;0.10;99.90;;;;;;630711;225;26617;-80
2021/12/23 00:42:07;;;;;;;26.70;17.20;;;0.00;99.90;;;;;;630528;223;26844;-80
2021/12/23 00:44:35;;;;;;;26.50;17.93;;;0.00;99.90;;;;;;627810;226;26631;-80
2021/12/23 00:47:04;;;;;;;23.97;17.93;;;0.10;99.90;;;;;;624909;226;26593;-80
2021/12/23 00:49:32;;;;;;;26.63;17.10;;;0.10;99.90;;;;;;625266;226;26626;-80
2021/12/23 00:52:02;;;;;;;23.53;18.13;;;0.30;99.90;;;;;;625871;226;26802;-80
2021/12/23 00:54:28;;;;;;;26.63;16.63;;;0.10;99.90;;;;;;624073;230;26528;-80
2021/12/23 00:56:55;;;;;;;23.23;16.40;;;0.20;99.90;;;;;;630271;226;26627;-79
2021/12/23 00:59:22;;;;;;;26.07;18.43;;;0.20;99.90;;;;;;630127;225;26921;-80
2021/12/23 01:01:50;;;;;;;23.23;16.50;;;0.30;99.90;;;;;;634849;226;26516;-80
2021/12/23 01:04:17;;;;;;;23.70;17.47;;;0.30;99.90;;;;;;625393;226;26833;-80
2021/12/23 01:06:45;;;;;;;24.73;17.00;;;0.40;99.90;;;;;;626149;226;26516;-82
2021/12/23 01:09:13;;;;;;;23.33;16.53;;;0.50;99.90;;;;;;634148;226;26617;-79
2021/12/23 01:11:41;;;;;;;24.87;16.70;;;0.60;99.90;;;;;;634925;226;26585;-79
2021/12/23 01:14:27;;;;;;;22.47;16.27;;;0.70;99.90;;;;;;631474;226;26572;-80
2021/12/23 01:19:16;;;;;;;26.70;18.17;;;0.80;99.90;;;;;;623444;230;26819;-82
2021/12/23 01:21:44;;;;;;;24.80;17.73;;;0.90;99.90;;;;;;625976;222;27365;-79
2021/12/23 01:24:11;;;;;;;22.37;17.20;;;0.70;99.90;;;;;;633795;226;26833;-79
2021/12/23 01:26:38;;;;;;;24.80;17.40;;;0.80;99.90;;;;;;633999;222;26549;-80
2021/12/23 01:29:06;;;;;;;26.70;17.33;;;0.90;99.90;;;;;;634974;226;26554;-80
2021/12/23 01:31:35;;;;;;;22.80;15.97;;;0.40;99.90;;;;;;626120;227;26658;-79
2021/12/23 01:34:02;;;;;;;25.13;17.17;;;0.40;99.90;;;;;;623791;226;26827;-79
2021/12/23 01:36:30;;;;;;;25.17;17.37;;;0.20;99.90;;;;;;630797;226;26582;-78
2021/12/23 01:38:58;;;;;;;25.07;18.13;;;0.20;99.90;;;;;;632609;226;26635;-79
2021/12/23 01:41:25;;;;;;;23.47;17.33;;;0.00;99.90;;;;;;625047;226;26612;-79
2021/12/23 01:43:53;;;;;;;24.47;17.13;;;0.00;99.90;;;;;;626181;225;26629;-79
2021/12/23 01:46:23;;;;;;;23.53;17.47;;;0.10;99.90;;;;;;627024;226;26561;-79
2021/12/23 01:48:50;;;;;;;26.20;17.30;;;0.10;99.90;;;;;;624585;230;26832;-82
2021/12/23 01:51:17;;;;;;;23.80;16.43;;;0.20;99.90;;;;;;624655;226;26593;-77
2021/12/23 01:53:46;;;;;;;27.23;17.80;;;0.20;99.90;;;;;;630004;226;26590;-76
2021/12/23 01:56:14;;;;;;;24.03;16.50;;;0.10;99.90;;;;;;636910;226;26563;-78
2021/12/23 01:58:41;;;;;;;22.60;16.53;;;0.20;99.90;;;;;;633464;226;26618;-78
2021/12/23 02:01:08;;;;;;;25.70;17.13;;;0.30;99.90;;;;;;627612;221;26630;-78
2021/12/23 02:03:36;;;;;;;22.73;17.13;;;0.50;99.90;;;;;;625731;227;26828;-78
2021/12/23 02:06:03;;;;;;;23.83;16.67;;;0.40;99.90;;;;;;631997;226;26511;-78
2021/12/23 02:08:31;;;;;;;23.10;16.63;;;0.50;99.90;;;;;;627605;226;26974;-78
2021/12/23 02:10:58;;;;;;;24.77;17.83;;;0.60;99.90;;;;;;625553;226;26801;-78
2021/12/23 02:13:26;;;;;;;29.50;16.60;;;0.40;99.90;;;;;;636576;226;26590;-77
2021/12/23 02:15:53;;;;;;;21.00;17.03;;;0.40;99.90;;;;;;636412;226;26822;-78
2021/12/23 02:18:20;;;;;;;24.60;18.13;;;0.40;99.90;;;;;;635098;226;26604;-78
2021/12/23 02:20:47;;;;;;;27.90;17.60;;;0.20;99.90;;;;;;626538;226;26846;-78
2021/12/23 02:23:14;;;;;;;24.37;16.57;;;0.30;99.90;;;;;;634042;227;26533;-77
2021/12/23 02:25:44;;;;;;;24.53;16.90;;;0.30;99.90;;;;;;633569;226;26571;-77
2021/12/23 02:28:11;;;;;;;22.30;16.73;;;0.30;99.90;;;;;;637478;225;26626;-78
2021/12/23 02:30:39;;;;;;;26.30;17.27;;;0.00;99.90;;;;;;627129;225;26617;-78
2021/12/23 02:33:07;;;;;;;25.37;17.40;;;0.00;99.90;;;;;;623621;230;26879;-78
2021/12/23 02:35:35;;;;;;;24.30;17.40;;;0.00;99.90;;;;;;623692;230;26597;-78
2021/12/23 02:38:03;;;;;;;25.20;17.37;;;-0.30;99.90;;;;;;623606;227;26820;-78
2021/12/23 02:40:32;;;;;;;23.70;17.20;;;-0.30;99.90;;;;;;630432;226;26616;-78
2021/12/23 02:43:06;;;;;;;24.70;17.73;;;-0.20;99.90;;;;;;629089;226;26511;-78
2021/12/23 02:45:33;;;;;;;24.73;17.63;;;-0.20;99.90;;;;;;626735;226;26551;-78
2021/12/23 02:48:01;;;;;;;26.87;19.43;;;-0.20;99.90;;;;;;630083;226;26527;-79
2021/12/23 02:50:29;;;;;;;25.07;16.67;;;0.10;99.90;;;;;;635767;226;26613;-78
2021/12/23 02:52:58;;;;;;;24.10;17.50;;;0.00;99.90;;;;;;631725;228;26565;-79
2021/12/23 02:55:25;;;;;;;24.50;16.93;;;0.00;99.90;;;;;;632752;225;26565;-78
2021/12/23 02:57:52;;;;;;;23.30;16.23;;;0.10;99.90;;;;;;637551;225;26548;-79
2021/12/23 03:00:19;;;;;;;25.10;17.57;;;0.30;99.90;;;;;;635790;225;26809;-78
2021/12/23 03:02:46;;;;;;;21.70;17.17;;;0.60;99.90;;;;;;630057;225;26559;-78
2021/12/23 03:05:13;;;;;;;24.23;18.20;;;0.70;99.90;;;;;;630173;226;26843;-79
2021/12/23 03:07:41;;;;;;;25.10;17.93;;;0.80;99.90;;;;;;630945;226;26534;-78
2021/12/23 03:10:08;;;;;;;25.50;18.00;;;0.80;99.90;;;;;;624878;230;26801;-78
2021/12/23 03:12:35;;;;;;;23.50;17.23;;;0.70;99.90;;;;;;634821;224;26513;-79
2021/12/23 03:15:02;;;;;;;28.47;18.63;;;0.80;99.90;;;;;;637218;226;26789;-78
2021/12/23 03:17:30;;;;;;;25.70;18.97;;;0.90;99.90;;;;;;630033;226;27044;-78
2021/12/23 03:19:57;;;;;;;24.40;18.40;;;0.80;99.90;;;;;;624148;230;26801;-78
2021/12/23 03:22:24;;;;;;;24.43;17.20;;;0.60;99.90;;;;;;624166;230;26562;-78
2021/12/23 03:24:51;;;;;;;26.10;17.20;;;0.50;99.90;;;;;;627062;226;26797;-78
2021/12/23 03:27:18;;;;;;;23.17;17.10;;;0.50;99.90;;;;;;636841;226;26583;-79
2021/12/23 03:29:46;;;;;;;27.20;17.90;;;0.60;99.90;;;;;;630058;226;27082;-78
2021/12/23 03:32:13;;;;;;;25.30;17.87;;;0.50;99.90;;;;;;631751;226;26527;-78
2021/12/23 03:34:40;;;;;;;27.70;17.80;;;0.50;99.90;;;;;;626950;226;27056;-78
2021/12/23 03:37:07;;;;;;;25.80;18.97;;;0.60;99.90;;;;;;623867;230;26595;-78
2021/12/23 03:39:34;;;;;;;27.60;18.80;;;0.60;99.90;;;;;;623875;230;26626;-78
2021/12/23 03:42:02;;;;;;;25.57;19.90;;;0.60;99.90;;;;;;630807;226;26558;-78
2021/12/23 03:44:30;;;;;;;24.43;17.83;;;0.80;99.90;;;;;;635428;226;26529;-78
2021/12/23 03:46:58;;;;;;;27.30;19.77;;;1.00;99.90;;;;;;636390;226;26587;-77
2021/12/23 03:49:26;;;;;;;24.73;18.53;;;1.00;99.90;;;;;;636322;226;26630;-77
2021/12/23 03:51:54;;;;;;;25.63;19.37;;;1.00;99.90;;;;;;636378;226;26555;-78
2021/12/23 03:54:21;;;;;;;28.87;18.87;;;1.00;99.90;;;;;;636305;226;26634;-79
2021/12/23 03:56:49;;;;;;;28.60;19.47;;;0.90;99.90;;;;;;627214;226;26613;-77
2021/12/23 03:59:16;;;;;;;28.63;19.37;;;0.90;99.90;;;;;;623834;230;26839;-78
2021/12/23 04:01:43;;;;;;;31.40;18.87;;;1.00;99.90;;;;;;631281;226;26547;-78
2021/12/23 04:04:10;;;;;;;28.20;18.60;;;0.80;99.90;;;;;;636450;226;26784;-78
2021/12/23 04:06:37;;;;;;;25.13;19.37;;;0.40;99.90;;;;;;637292;224;26531;-77
2021/12/23 04:09:05;;;;;;;28.33;19.23;;;0.20;99.90;;;;;;637925;225;26776;-78
2021/12/23 04:11:32;;;;;;;27.57;18.97;;;0.00;99.90;;;;;;634131;225;26614;-78
2021/12/23 04:13:59;;;;;;;27.33;18.73;;;-0.10;99.90;;;;;;637385;225;26901;-78
2021/12/23 04:16:26;;;;;;;27.70;19.57;;;-0.40;99.90;;;;;;637216;226;26527;-78
2021/12/23 04:18:55;;;;;;;28.83;19.37;;;-0.10;99.90;;;;;;637022;226;26803;-78
2021/12/23 04:21:21;;;;;;;24.83;18.57;;;0.10;99.90;;;;;;634883;223;26560;-78
2021/12/23 04:23:49;;;;;;;25.17;18.03;;;0.40;99.90;;;;;;626836;226;26822;-78
2021/12/23 04:26:16;;;;;;;27.63;20.00;;;0.50;99.90;;;;;;636820;226;26585;-78
2021/12/23 04:28:46;;;;;;;28.43;19.03;;;0.70;99.90;;;;;;636768;226;26810;-78
2021/12/23 04:31:13;;;;;;;31.87;20.70;;;0.90;99.90;;;;;;636754;226;26605;-78
2021/12/23 04:33:41;;;;;;;27.00;19.00;;;0.90;99.90;;;;;;636701;226;26562;-78
2021/12/23 04:36:09;;;;;;;27.43;19.17;;;0.80;99.90;;;;;;626332;226;26551;-79
2021/12/23 04:38:37;;;;;;;26.83;19.47;;;0.80;99.90;;;;;;624118;230;26555;-79
2021/12/23 04:41:05;;;;;;;33.17;19.93;;;0.70;99.90;;;;;;624978;227;26587;-78
2021/12/23 04:43:33;;;;;;;26.70;19.60;;;0.40;99.90;;;;;;623878;230;26593;-78
2021/12/23 04:46:00;;;;;;;31.40;21.03;;;0.40;99.90;;;;;;627203;226;26807;-78
2021/12/23 04:48:27;;;;;;;27.87;18.67;;;0.50;99.90;;;;;;630118;226;26580;-78
2021/12/23 04:50:54;;;;;;;27.47;18.90;;;0.50;99.90;;;;;;634746;226;26856;-78
2021/12/23 04:53:21;;;;;;;31.80;19.57;;;0.80;99.90;;;;;;623931;230;26560;-78
2021/12/23 04:55:49;;;;;;;30.03;19.30;;;1.10;99.90;;;;;;623921;230;26842;-78
2021/12/23 04:58:16;;;;;;;29.70;20.27;;;1.10;99.90;;;;;;623894;230;26598;-78
2021/12/23 05:00:47;;;;;;;28.73;19.43;;;1.10;99.90;;;;;;623916;230;26847;-78
2021/12/23 05:03:10;;;;;;;30.67;20.93;;;1.20;99.90;;;;;;624423;226;26616;-78
2021/12/23 05:05:37;;;;;;;26.77;19.57;;;1.10;99.90;;;;;;635246;226;26785;-78
2021/12/23 05:08:05;;;;;;;29.73;20.67;;;1.20;99.90;;;;;;623929;230;26603;-78
2021/12/23 05:10:32;;;;;;;28.73;19.83;;;1.20;99.90;;;;;;623913;230;26953;-78
2021/12/23 05:13:01;;;;;;;27.37;18.53;;;1.50;99.90;;;;;;623965;230;26590;-78
2021/12/23 05:15:28;;;;;;;25.47;19.63;;;1.50;99.90;;;;;;623839;230;26581;-78
2021/12/23 05:17:56;;;;;;;28.50;19.83;;;1.20;99.90;;;;;;624502;228;26590;-78
2021/12/23 05:20:24;;;;;;;28.77;19.60;;;1.10;99.90;;;;;;625436;230;26629;-78
2021/12/23 05:22:51;;;;;;;28.60;19.53;;;1.10;99.90;;;;;;634561;225;26547;-78
2021/12/23 05:25:18;;;;;;;27.87;19.63;;;1.10;99.90;;;;;;635166;226;26531;-78
2021/12/23 05:27:45;;;;;;;29.07;19.17;;;1.10;99.90;;;;;;634848;226;26840;-78
2021/12/23 05:30:13;;;;;;;27.80;19.07;;;1.20;99.90;;;;;;632045;225;26613;-78
2021/12/23 05:32:42;;;;;;;26.60;18.83;;;1.40;99.90;;;;;;624474;230;26879;-78
2021/12/23 05:35:08;;;;;;;31.03;20.17;;;1.40;99.90;;;;;;632387;226;26777;-78
2021/12/23 05:37:36;;;;;;;30.53;20.37;;;1.40;99.90;;;;;;636767;226;26796;-78
2021/12/23 05:40:04;;;;;;;29.73;21.17;;;1.20;99.90;;;;;;629151;226;26618;-78
2021/12/23 05:42:31;;;;;;;26.57;19.23;;;1.30;99.90;;;;;;625168;226;26801;-78
2021/12/23 05:44:58;;;;;;;29.27;20.00;;;1.40;99.90;;;;;;634515;227;26622;-78
2021/12/23 05:47:25;;;;;;;30.40;20.63;;;1.40;99.90;;;;;;634482;227;26897;-78
2021/12/23 05:49:53;;;;;;;30.90;20.07;;;1.50;99.90;;;;;;634486;226;26607;-78
2021/12/23 05:52:20;;;;;;;28.70;18.90;;;1.60;99.90;;;;;;632163;227;27269;-78
2021/12/23 05:54:47;;;;;;;28.80;19.80;;;1.40;99.90;;;;;;623957;230;26582;-78
2021/12/23 05:57:14;;;;;;;27.20;19.47;;;1.40;99.90;;;;;;626907;227;26836;-78
2021/12/23 05:59:42;;;;;;;28.43;19.33;;;1.60;99.90;;;;;;634208;226;26548;-78
2021/12/23 06:02:10;;;;;;;30.50;19.53;;;1.70;99.90;;;;;;636476;226;26513;-78
2021/12/23 06:04:38;;;;;;;26.90;18.57;;;1.80;99.90;;;;;;636510;226;26543;-78
2021/12/23 06:07:06;;;;;;;27.30;19.70;;;1.80;99.90;;;;;;636463;226;26531;-78
2021/12/23 06:09:33;;;;;;;31.30;20.07;;;1.80;99.90;;;;;;633947;226;26593;-78
2021/12/23 06:12:00;;;;;;;28.93;19.13;;;1.90;99.90;;;;;;636936;226;26602;-78
2021/12/23 06:14:28;;;;;;;32.57;20.43;;;1.80;99.90;;;;;;630142;226;27272;-78
2021/12/23 06:16:55;;;;;;;31.20;20.07;;;1.80;99.90;;;;;;633309;226;26596;-79
2021/12/23 06:19:22;;;;;;;29.33;20.33;;;1.80;99.90;;;;;;632630;226;26602;-78
2021/12/23 06:21:49;;;;;;;29.90;19.70;;;1.90;99.90;;;;;;624795;226;26588;-77
2021/12/23 06:24:16;;;;;;;26.40;19.47;;;2.00;99.90;;;;;;623858;230;27078;-78
2021/12/23 06:26:44;;;;;;;28.37;19.73;;;1.90;99.90;;;;;;630046;226;26594;-78
2021/12/23 06:29:11;;;;;;;26.20;19.63;;;1.90;99.90;;;;;;626509;224;26852;-78
2021/12/23 06:31:38;;;;;;;26.70;19.17;;;1.90;99.90;;;;;;631478;225;26539;-77
2021/12/23 06:34:05;;;;;;;28.33;19.67;;;1.90;99.90;;;;;;628923;225;26532;-78
2021/12/23 06:36:33;;;;;;;30.90;19.63;;;2.10;99.90;;;;;;630846;225;26850;-78
2021/12/23 06:39:01;;;;;;;26.83;20.57;;;2.20;99.90;;;;;;628020;225;26603;-77
2021/12/23 06:41:29;;;;;;;29.43;19.30;;;2.20;99.90;;;;;;635697;225;26607;-78
2021/12/23 06:43:57;;;;;;;30.53;21.07;;;2.20;99.90;;;;;;634493;226;26586;-78
2021/12/23 06:46:25;;;;;;;27.67;19.03;;;2.20;99.90;;;;;;636150;225;26659;-78
2021/12/23 06:48:52;;;;;;;30.57;20.00;;;2.20;99.90;;;;;;632428;225;26557;-77
2021/12/23 06:51:20;;;;;;;32.30;20.50;;;2.30;99.90;;;;;;627898;226;26565;-78
2021/12/23 06:53:47;;;;;;;26.20;19.73;;;2.30;99.90;;;;;;632688;226;26834;-78
2021/12/23 06:56:17;;;;;;;26.70;20.07;;;2.20;99.90;;;;;;629208;222;26591;-79
2021/12/23 06:58:41;;;;;;;28.07;19.33;;;2.20;99.90;;;;;;636880;226;26842;-78
2021/12/23 07:01:08;;;;;;;26.93;18.77;;;2.20;99.90;;;;;;635633;225;26704;-78
2021/12/23 07:04:02;;;;;;;28.70;19.97;;;2.30;99.90;;;;;;636420;226;26809;-78
2021/12/23 07:06:07;;;;;;;24.50;17.67;;;2.10;99.90;;;;;;630668;226;26630;-78
2021/12/23 07:08:37;;;;;;;26.20;18.40;;;1.90;99.90;;;;;;623705;230;26609;-78
2021/12/23 07:11:02;;;;;;;27.87;18.73;;;2.00;99.90;;;;;;624414;227;26603;-78
2021/12/23 07:13:30;;;;;;;26.87;18.57;;;2.10;99.90;;;;;;634070;226;26550;-78
2021/12/23 07:16:00;;;;;;;25.50;18.83;;;2.10;99.90;;;;;;634033;226;26564;-78
2021/12/23 07:18:24;;;;;;;28.30;19.13;;;2.10;99.90;;;;;;633856;226;26549;-78
2021/12/23 07:20:51;;;;;;;27.13;18.57;;;2.00;99.90;;;;;;634122;227;26913;-78
2021/12/23 07:23:19;;;;;;;27.73;18.63;;;1.70;99.90;;;;;;634193;227;26549;-78
2021/12/23 07:25:46;;;;;;;27.70;19.30;;;1.80;99.90;;;;;;634159;227;27213;-77
2021/12/23 07:28:13;;;;;;;27.30;17.37;;;1.90;99.90;;;;;;634166;226;26545;-78
2021/12/23 07:30:40;;;;;;;24.67;17.73;;;2.00;99.90;;;;;;634153;226;27335;-78
2021/12/23 07:33:07;;;;;;;24.10;17.77;;;2.00;99.90;;;;;;634061;226;26550;-77
2021/12/23 07:35:35;;;;;;;27.63;18.07;;;2.30;99.90;;;;;;623781;230;26828;-77
2021/12/23 07:38:03;;;;;;;25.20;17.93;;;2.20;99.90;;;;;;623922;230;26817;-77
2021/12/23 07:40:31;;;;;;;29.90;17.70;;;2.20;99.90;;;;;;631021;224;26564;-78
2021/12/23 07:43:09;;;;;;;28.57;19.17;;;2.20;99.90;;;;;;638333;225;26582;-78
2021/12/23 07:45:27;;;;;;;25.97;18.00;;;2.30;99.90;;;;;;636858;225;26566;-78
2021/12/23 07:47:55;;;;;;;26.33;16.67;;;2.20;99.90;;;;;;634067;226;26579;-78
2021/12/23 07:50:23;;;;;;;26.27;17.67;;;2.20;99.90;;;;;;637357;226;26662;-78
2021/12/23 07:52:50;;;;;;;25.67;17.83;;;2.20;99.90;;;;;;637094;226;26576;-77
2021/12/23 07:55:17;;;;;;;28.43;18.23;;;2.20;99.90;;;;;;637020;226;26551;-79
2021/12/23 07:57:44;;;;;;;26.27;17.97;;;2.30;99.90;;;;;;637045;226;26562;-78
2021/12/23 08:00:12;;;;;;;26.53;17.40;;;2.40;99.90;;;;;;636823;221;27331;-78
2021/12/23 08:02:39;;;;;;;26.20;18.47;;;2.50;99.90;;;;;;636818;226;26551;-78
2021/12/23 08:05:07;;;;;;;27.93;18.93;;;2.50;99.90;;;;;;635227;226;26603;-77
2021/12/23 08:07:34;;;;;;;25.63;18.20;;;2.40;99.90;;;;;;635847;226;26619;-85
2021/12/23 08:10:01;;;;;;;24.63;16.97;;;2.20;99.90;;;;;;631759;227;26659;-84
2021/12/23 08:12:28;;;;;;;23.97;16.90;;;2.00;99.90;;;;;;631789;226;26608;-83
2021/12/23 08:14:55;;;;;;;23.37;16.10;;;2.20;99.90;;;;;;631972;226;26657;-84
2021/12/23 08:17:23;;;;;;;22.13;16.30;;;2.10;99.90;;;;;;638480;225;26556;-83
2021/12/23 08:19:50;;;;;;;24.90;17.53;;;2.10;99.90;;;;;;629535;221;26910;-83
2021/12/23 08:22:17;;;;;;;25.30;17.20;;;2.10;99.90;;;;;;623870;230;26575;-86
2021/12/23 08:24:44;;;;;;;23.03;16.80;;;1.90;99.90;;;;;;624063;230;26597;-86
2021/12/23 08:27:12;;;;;;;26.63;17.70;;;2.10;99.90;;;;;;624083;230;26584;-83
2021/12/23 08:29:40;;;;;;;23.90;16.80;;;2.30;99.90;;;;;;623864;230;26618;-78
2021/12/23 08:32:07;;;;;;;24.67;17.87;;;2.30;99.90;;;;;;623807;230;26598;-77
2021/12/23 08:34:37;;;;;;;24.40;17.03;;;2.20;99.90;;;;;;624826;226;26623;-78
2021/12/23 08:37:06;;;;;;;26.97;18.17;;;2.20;99.90;;;;;;636269;226;26539;-78
2021/12/23 08:39:31;;;;;;;24.33;17.07;;;2.40;99.90;;;;;;634383;226;26559;-77
2021/12/23 08:41:59;;;;;;;24.07;16.77;;;2.40;99.90;;;;;;636430;226;26727;-77
2021/12/23 08:44:27;;;;;;;21.27;16.97;;;2.50;99.90;;;;;;633682;226;26571;-78
2021/12/23 08:46:54;;;;;;;23.33;17.17;;;2.40;99.90;;;;;;633194;226;26547;-76
2021/12/23 08:49:22;;;;;;;25.37;16.37;;;2.50;99.90;;;;;;630906;222;26924;-78
2021/12/23 08:51:49;;;;;;;23.27;16.63;;;2.50;99.90;;;;;;632701;226;26597;-78
2021/12/23 08:54:17;;;;;;;25.80;17.73;;;2.50;99.90;;;;;;629368;223;26599;-78
2021/12/23 08:56:44;;;;;;;27.87;17.93;;;2.50;99.90;;;;;;625154;230;26553;-78
2021/12/23 08:59:12;;;;;;;25.10;17.60;;;2.60;99.90;;;;;;626675;226;26558;-78
2021/12/23 09:01:40;;;;;;;21.67;16.10;;;2.70;99.90;;;;;;630429;226;26598;-79
2021/12/23 09:04:07;;;;;;;25.00;16.17;;;2.70;99.90;;;;;;629978;226;26616;-79
2021/12/23 09:06:35;;;;;;;25.50;17.20;;;3.00;99.90;;;;;;630671;226;27289;-77
2021/12/23 09:09:03;;;;;;;25.03;17.13;;;3.00;99.90;;;;;;627824;226;27017;-77
2021/12/23 09:11:30;;;;;;;26.13;17.73;;;3.00;99.90;;;;;;633806;226;26599;-78
2021/12/23 09:13:58;;;;;;;25.13;17.23;;;3.10;99.90;;;;;;625676;227;26542;-79
2021/12/23 09:16:26;;;;;;;28.07;17.77;;;3.10;99.90;;;;;;625528;226;26575;-78
2021/12/23 09:18:53;;;;;;;25.73;16.70;;;3.10;99.90;;;;;;630881;226;26582;-77
2021/12/23 09:21:21;;;;;;;24.30;16.63;;;3.10;99.90;;;;;;636519;226;26824;-79
2021/12/23 09:23:48;;;;;;;24.47;16.67;;;3.30;99.90;;;;;;628220;226;26593;-79
2021/12/23 09:26:15;;;;;;;22.50;16.77;;;3.50;99.90;;;;;;636499;226;26807;-82
2021/12/23 09:33:51;;;;;;;22.67;16.87;;;3.80;99.90;;;;;;632368;226;26601;-79
2021/12/23 09:36:17;;;;;;;22.60;15.97;;;3.70;99.90;;;;;;636600;226;26922;-79
2021/12/23 09:38:45;;;;;;;24.07;17.60;;;3.90;99.90;;;;;;636745;226;26574;-78
2021/12/23 09:41:13;;;;;;;27.33;17.80;;;3.60;99.90;;;;;;626063;226;26609;-78
2021/12/23 09:43:40;;;;;;;24.00;16.40;;;3.50;99.90;;;;;;623737;230;26871;-78
2021/12/23 09:46:08;;;;;;;24.97;16.37;;;3.60;99.90;;;;;;628936;226;26577;-79
2021/12/23 09:48:36;;;;;;;22.83;16.63;;;3.40;99.90;;;;;;625640;226;26647;-77
2021/12/23 09:51:04;;;;;;;24.33;16.10;;;3.60;99.90;;;;;;636285;226;26566;-80
2021/12/23 09:53:32;;;;;;;23.27;16.03;;;3.70;99.90;;;;;;634941;225;27185;-78
2021/12/23 09:55:59;;;;;;;24.73;16.07;;;3.70;99.90;;;;;;626534;225;26587;-79
2021/12/23 09:58:27;;;;;;;23.80;16.27;;;3.70;99.90;;;;;;630606;226;26602;-78
2021/12/23 10:00:55;;;;;;;21.23;15.90;;;3.60;99.90;;;;;;630474;227;26653;-78
2021/12/23 10:03:22;;;;;;;21.60;16.67;;;3.60;99.90;;;;;;626336;226;26608;-84
2021/12/23 10:05:49;;;;;;;22.47;16.50;;;3.80;99.90;;;;;;632780;224;26910;-86
2021/12/23 10:08:17;;;;;;;21.07;15.97;;;3.70;99.90;;;;;;632917;225;26587;-86
2021/12/23 10:10:51;;;;;;;24.70;16.70;;;3.50;99.90;;;;;;635220;226;26916;-84
2021/12/23 10:30:10;;;;;;;20.77;15.97;;;2.90;99.90;;;;;;636631;226;26811;-81
2021/12/23 10:31:41;;;;;;;21.13;15.83;;;3.30;99.90;;;;;;635025;226;26612;-80
2021/12/23 10:37:13;;;;;;;23.03;16.30;;;3.20;99.90;;;;;;636160;226;26587;-80
2021/12/23 10:39:10;;;;;;;22.83;16.67;;;3.40;99.90;;;;;;636695;225;26781;-80
2021/12/23 10:41:37;;;;;;;23.53;16.77;;;3.30;99.90;;;;;;634993;226;26567;-80
2021/12/23 10:44:05;;;;;;;21.43;15.73;;;3.50;99.90;;;;;;636490;226;27128;-80
2021/12/23 10:46:35;;;;;;;23.13;16.37;;;3.70;99.90;;;;;;636543;226;26808;-79
2021/12/23 10:49:28;;;;;;;26.23;15.80;;;3.80;99.90;;;;;;636748;226;26517;-80
2021/12/23 10:51:59;;;;;;;23.47;15.53;;;3.60;99.90;;;;;;635195;226;26571;-80
2021/12/23 10:58:00;;;;;;;20.60;15.50;;;3.80;99.90;;;;;;634538;225;26611;-79
2021/12/23 10:59:24;;;;;;;20.90;15.10;;;4.50;99.90;;;;;;636183;222;26832;-79
2021/12/23 11:02:00;;;;;;;20.63;15.70;;;4.70;99.90;;;;;;636171;226;26602;-81
2021/12/23 11:04:28;;;;;;;20.10;15.30;;;4.70;99.90;;;;;;629168;226;27301;-80
2021/12/23 11:07:22;;;;;;;21.87;15.50;;;4.70;99.90;;;;;;623835;227;26605;-79
2021/12/23 11:09:59;;;;;;;21.40;15.07;;;4.50;99.90;;;;;;638383;225;26654;-80
2021/12/23 11:38:28;;;;;;;22.10;14.73;;;3.80;99.90;;;;;;639379;225;26555;-79
2021/12/23 11:40:54;;;;;;;20.13;14.00;;;3.80;99.90;;;;;;638645;221;26747;-79
2021/12/23 11:43:29;;;;;;;19.73;13.83;;;3.30;99.90;;;;;;639069;225;26526;-79
2021/12/23 11:45:54;;;;;;;19.67;14.10;;;3.20;99.90;;;;;;639298;225;26752;-78
2021/12/23 11:48:22;;;;;;;19.23;14.87;;;3.20;99.90;;;;;;639330;225;26545;-79
2021/12/23 11:50:55;;;;;;;19.07;13.73;;;3.40;99.90;;;;;;639405;225;26554;-79
2021/12/23 11:53:21;;;;;;;20.47;14.90;;;3.20;99.90;;;;;;638957;225;26599;-79
2021/12/23 11:55:49;;;;;;;18.77;14.03;;;3.50;99.90;;;;;;639157;225;26562;-79
2021/12/23 11:58:17;;;;;;;19.57;14.03;;;3.20;99.90;;;;;;639080;225;26595;-79
2021/12/23 12:00:45;;;;;;;18.20;13.30;;;3.20;99.90;;;;;;638729;225;26620;-78
2021/12/23 12:03:12;;;;;;;19.90;14.70;;;3.20;99.90;;;;;;639134;225;26831;-78
2021/12/23 12:05:39;;;;;;;17.53;13.40;;;3.20;99.90;;;;;;639121;225;26576;-79
2021/12/23 12:08:06;;;;;;;19.60;14.57;;;3.20;99.90;;;;;;639109;225;26868;-78
2021/12/23 12:10:34;;;;;;;16.47;12.43;;;3.10;99.90;;;;;;638878;225;26851;-79
2021/12/23 12:13:01;;;;;;;16.80;13.13;;;3.60;99.90;;;;;;639040;225;26600;-79
2021/12/23 12:15:34;;;;;;;16.73;12.43;;;4.00;99.90;;;;;;639096;225;26819;-79
2021/12/23 12:18:02;;;;;;;16.57;12.20;;;4.30;99.90;;;;;;639111;225;26596;-78
2021/12/23 12:20:36;;;;;;;17.77;12.03;;;4.80;99.90;;;;;;639106;225;27129;-79
2021/12/23 12:23:01;;;;;;;17.00;12.07;;;4.80;99.90;;;;;;638884;225;26586;-79
2021/12/23 12:25:48;;;;;;;16.57;12.60;;;5.00;99.80;;;;;;639107;225;26810;-79
2021/12/23 12:28:17;;;;;;;14.27;11.73;;;5.00;99.60;;;;;;640388;223;26597;-79
2021/12/23 12:30:43;;;;;;;17.43;12.30;;;4.90;99.40;;;;;;640177;224;26618;-80
2021/12/23 12:33:11;;;;;;;15.87;12.00;;;4.70;99.50;;;;;;640057;224;26531;-80
2021/12/23 12:35:39;;;;;;;15.83;12.40;;;4.90;99.60;;;;;;640167;225;26552;-80
2021/12/23 12:38:12;;;;;;;17.77;12.77;;;4.60;99.20;;;;;;639798;225;26614;-82
2021/12/23 12:40:51;;;;;;;15.30;12.50;;;4.60;99.40;;;;;;639731;225;26872;-80
2021/12/23 12:43:33;;;;;;;14.50;12.23;;;4.60;99.50;;;;;;639732;225;26597;-79
2021/12/23 12:45:58;;;;;;;15.47;12.03;;;4.30;99.90;;;;;;639468;225;26550;-80
2021/12/23 12:48:38;;;;;;;16.93;13.07;;;4.50;99.80;;;;;;639406;225;26542;-79
2021/12/23 12:51:05;;;;;;;15.07;12.37;;;4.50;99.70;;;;;;639393;225;26835;-79
2021/12/23 12:53:32;;;;;;;16.07;12.07;;;4.20;99.90;;;;;;637681;225;26763;-79
2021/12/23 12:55:59;;;;;;;15.97;12.77;;;4.30;99.90;;;;;;636629;225;26800;-80
2021/12/23 12:58:36;;;;;;;16.20;12.50;;;4.40;99.90;;;;;;639423;225;26538;-80
2021/12/23 13:01:06;;;;;;;15.43;12.33;;;4.10;99.90;;;;;;639377;225;26573;-80
2021/12/23 13:03:31;;;;;;;14.50;11.10;;;4.10;99.90;;;;;;639200;225;26562;-80
2021/12/23 13:05:59;;;;;;;17.40;12.43;;;4.10;99.90;;;;;;636230;225;26563;-78
2021/12/23 13:08:29;;;;;;;15.87;12.20;;;4.20;99.90;;;;;;638944;225;26616;-79
2021/12/23 13:10:59;;;;;;;16.17;12.33;;;4.50;99.90;;;;;;638982;225;26632;-79
2021/12/23 13:13:32;;;;;;;20.03;12.93;;;4.00;99.90;;;;;;638518;225;26590;-79
2021/12/23 13:15:58;;;;;;;19.07;13.43;;;4.00;99.90;;;;;;638547;225;26638;-79
2021/12/23 13:18:23;;;;;;;18.47;13.10;;;4.00;99.90;;;;;;638606;225;26583;-80
2021/12/23 13:20:50;;;;;;;19.27;12.80;;;3.80;99.90;;;;;;639075;225;27293;-80
2021/12/23 13:23:37;;;;;;;14.97;12.30;;;3.70;99.90;;;;;;639005;225;26618;-79
2021/12/23 13:26:05;;;;;;;15.73;13.07;;;3.60;99.90;;;;;;625649;225;26601;-80
2021/12/23 13:28:43;;;;;;;17.77;13.70;;;3.50;99.90;;;;;;623604;227;26837;-79
2021/12/23 13:31:10;;;;;;;21.83;12.80;;;3.40;99.90;;;;;;623555;230;26632;-79
2021/12/23 13:33:44;;;;;;;20.30;13.23;;;3.50;99.90;;;;;;623319;230;26894;-79
2021/12/23 13:36:11;;;;;;;18.07;12.97;;;3.60;99.90;;;;;;623908;230;26603;-79
2021/12/23 13:38:41;;;;;;;18.13;13.37;;;3.90;99.90;;;;;;624127;228;26612;-81